Time;durP1;ratioP1;P1;durP2;ratioP2;P2;SDS_P1;SDS_P2;PMS_P1;PMS_P2;Temp;Humidity;BMP_temperature;BMP_pressure;BME280_temperature;BME280_humidity;BME280_pressure;Samples;Min_cycle;Max_cycle;Signal;HPM_P1;HPM_P2
2022/08/25 00:00:44;;;;;;;7.05;1.98;;;;;;;26.82;64.14;98539.69;6039783;23;20154;-87
2022/08/25 00:03:11;;;;;;;8.37;2.37;;;;;;;26.67;64.67;98544.31;6040151;23;20257;-87
2022/08/25 00:05:37;;;;;;;6.93;1.93;;;;;;;26.71;64.40;98550.94;6039850;23;20154;-88
2022/08/25 00:08:05;;;;;;;7.80;2.83;;;;;;;26.60;65.24;98538.06;6040153;23;20150;-87
2022/08/25 00:10:33;;;;;;;8.73;2.00;;;;;;;26.65;64.94;98538.31;6040427;23;20162;-87
2022/08/25 00:13:00;;;;;;;6.20;2.13;;;;;;;26.52;65.23;98540.91;6039781;23;20593;-87
2022/08/25 00:15:27;;;;;;;8.33;1.90;;;;;;;26.41;66.07;98541.44;6039770;23;20150;-87
2022/08/25 00:17:53;;;;;;;4.40;1.90;;;;;;;26.49;65.72;98530.56;6039676;23;20186;-87
2022/08/25 00:20:18;;;;;;;7.60;2.47;;;;;;;26.47;66.04;98533.41;6040431;23;20150;-87
2022/08/25 00:22:44;;;;;;;9.07;2.53;;;;;;;26.49;66.03;98528.69;6039927;23;20229;-87
2022/08/25 00:25:11;;;;;;;8.47;2.40;;;;;;;26.53;65.91;98518.38;6039993;23;20221;-88
2022/08/25 00:27:36;;;;;;;9.47;2.50;;;;;;;26.34;66.42;98519.88;6039668;23;20150;-87
2022/08/25 00:30:04;;;;;;;5.18;1.88;;;;;;;26.12;67.50;98524.50;6038498;23;20172;-87
2022/08/25 00:32:30;;;;;;;6.27;2.00;;;;;;;26.10;67.70;98518.41;6039512;23;20169;-88
2022/08/25 00:34:56;;;;;;;8.63;2.47;;;;;;;26.04;67.98;98527.28;6040271;23;20150;-87
2022/08/25 00:37:21;;;;;;;15.90;2.57;;;;;;;25.94;68.32;98529.44;6039941;23;20232;-87
2022/08/25 00:39:47;;;;;;;7.90;1.90;;;;;;;26.10;67.72;98523.78;6039637;23;20232;-88
2022/08/25 00:42:13;;;;;;;9.95;2.15;;;;;;;26.20;66.92;98528.88;6039589;23;20221;-87
2022/08/25 00:44:39;;;;;;;6.17;2.00;;;;;;;26.27;66.45;98527.06;6039446;23;20181;-88
2022/08/25 00:47:05;;;;;;;9.50;2.53;;;;;;;26.26;66.41;98528.09;6038330;23;20487;-88
2022/08/25 00:49:45;;;;;;;8.93;2.17;;;;;;;26.21;66.11;98520.63;6039882;23;20149;-87
2022/08/25 00:52:27;;;;;;;5.53;1.87;;;;;;;26.23;66.08;98518.56;6038397;23;20497;-87
2022/08/25 00:55:10;;;;;;;7.93;2.30;;;;;;;26.26;66.17;98520.03;6039868;23;20176;-87
2022/08/25 00:57:42;;;;;;;9.53;2.33;;;;;;;26.23;66.47;98518.56;6039880;23;20138;-87
2022/08/25 01:00:14;;;;;;;10.10;1.97;;;;;;;26.14;66.91;98518.91;6039566;23;20162;-88
2022/08/25 01:02:40;;;;;;;7.27;2.00;;;;;;;26.19;66.74;98517.31;6040207;23;20145;-87
2022/08/25 01:05:06;;;;;;;5.37;2.03;;;;;;;26.22;66.43;98518.75;6039439;23;20578;-87
2022/08/25 01:07:32;;;;;;;9.57;2.13;;;;;;;26.28;66.17;98519.84;6039446;23;20481;-87
2022/08/25 01:09:59;;;;;;;12.07;2.03;;;;;;;26.22;66.10;98516.91;6038254;23;20158;-87
2022/08/25 01:12:24;;;;;;;15.47;2.50;;;;;;;26.18;66.67;98523.69;6039433;23;20154;-87
2022/08/25 01:14:51;;;;;;;3.93;2.13;;;;;;;26.23;66.66;98523.13;6039792;23;20633;-87
2022/08/25 01:17:17;;;;;;;10.97;2.80;;;;;;;26.21;66.32;98528.69;6039461;23;20154;-86
2022/08/25 01:19:42;;;;;;;7.37;2.23;;;;;;;26.23;66.40;98529.31;6039450;23;20237;-87
2022/08/25 01:22:10;;;;;;;2.87;1.60;;;;;;;26.20;66.69;98524.31;6038902;23;20249;-87
2022/08/25 01:24:58;;;;;;;10.87;1.97;;;;;;;26.22;66.36;98519.59;6039328;23;20174;-87
2022/08/25 01:27:23;;;;;;;5.83;2.23;;;;;;;26.19;66.76;98520.00;6039391;23;20150;-87
2022/08/25 01:29:49;;;;;;;10.23;1.87;;;;;;;26.24;66.13;98520.22;6040436;23;20165;-86
2022/08/25 01:32:15;;;;;;;8.90;2.37;;;;;;;26.30;65.84;98521.31;6041031;23;20629;-86
2022/08/25 01:34:42;;;;;;;7.93;2.60;;;;;;;26.30;65.81;98518.63;6041196;23;20480;-87
2022/08/25 01:37:10;;;;;;;7.40;2.27;;;;;;;26.20;66.39;98518.13;6041451;23;20164;-87
2022/08/25 01:39:35;;;;;;;7.80;2.03;;;;;;;26.17;66.17;98513.97;6041134;23;20256;-87
2022/08/25 01:42:12;;;;;;;9.80;2.57;;;;;;;26.18;66.31;98510.25;6041056;23;20482;-87
2022/08/25 01:44:41;;;;;;;10.07;2.63;;;;;;;26.11;66.83;98509.34;6041312;23;20165;-87
2022/08/25 01:47:07;;;;;;;7.10;2.63;;;;;;;25.85;67.94;98501.06;6039872;23;20554;-87
2022/08/25 01:49:33;;;;;;;9.80;2.13;;;;;;;25.80;68.47;98497.28;6041648;23;20174;-87
2022/08/25 01:52:11;;;;;;;9.93;2.97;;;;;;;25.71;69.13;98487.72;6041273;23;20579;-86
2022/08/25 01:54:37;;;;;;;6.80;1.90;;;;;;;25.68;69.53;98486.25;6041404;23;20289;-86
2022/08/25 01:57:03;;;;;;;11.70;2.67;;;;;;;25.47;71.08;98489.72;6041002;23;20574;-87
2022/08/25 01:59:28;;;;;;;10.10;3.10;;;;;;;25.51;71.19;98488.34;6041289;23;20154;-87
2022/08/25 02:01:54;;;;;;;7.80;2.87;;;;;;;25.43;72.16;98488.44;6040925;23;20186;-86
2022/08/25 02:04:20;;;;;;;12.47;3.30;;;;;;;25.43;72.74;98483.06;6040820;23;20209;-87
2022/08/25 02:06:46;;;;;;;13.40;3.33;;;;;;;25.41;72.93;98479.75;6040881;23;20164;-87
2022/08/25 02:09:14;;;;;;;10.17;3.10;;;;;;;25.28;73.92;98482.28;6040831;23;20162;-87
2022/08/25 02:11:42;;;;;;;8.30;2.60;;;;;;;25.31;74.64;98484.59;6040822;23;20154;-87
2022/08/25 02:14:10;;;;;;;11.73;3.27;;;;;;;25.22;75.25;98483.03;6041474;23;20157;-87
2022/08/25 02:16:37;;;;;;;8.37;2.73;;;;;;;25.01;76.55;98489.19;6039603;23;20514;-87
2022/08/25 02:19:07;;;;;;;7.87;2.43;;;;;;;25.00;77.19;98484.81;6040787;23;20154;-86
2022/08/25 02:21:34;;;;;;;6.43;2.90;;;;;;;24.89;77.73;98479.13;6039570;23;20581;-86
2022/08/25 02:24:00;;;;;;;15.90;3.30;;;;;;;24.79;78.33;98474.03;6040619;23;20178;-88
2022/08/25 02:26:26;;;;;;;8.13;3.07;;;;;;;24.56;80.32;98459.88;6040701;23;20178;-86
2022/08/25 02:28:52;;;;;;;13.93;3.63;;;;;;;24.41;81.43;98459.06;6040659;23;20154;-87
2022/08/25 02:31:20;;;;;;;9.60;4.73;;;;;;;24.21;83.20;98458.75;6040993;23;20472;-87
2022/08/25 02:33:45;;;;;;;11.23;2.93;;;;;;;24.32;82.57;98460.16;6040572;23;20193;-86
2022/08/25 02:36:11;;;;;;;10.67;2.93;;;;;;;24.26;83.18;98463.59;6040604;23;20182;-86
2022/08/25 02:38:38;;;;;;;10.23;3.50;;;;;;;24.25;83.02;98456.56;6040958;23;20150;-87
2022/08/25 02:41:11;;;;;;;11.60;3.40;;;;;;;24.42;81.98;98455.38;6040123;23;20178;-87
2022/08/25 02:43:38;;;;;;;7.47;2.97;;;;;;;24.22;83.01;98455.06;6040548;23;20220;-88
2022/08/25 02:46:04;;;;;;;15.43;4.23;;;;;;;24.15;83.97;98459.50;6040501;23;20224;-87
2022/08/25 02:48:30;;;;;;;12.40;3.30;;;;;;;24.23;83.68;98466.63;6040572;23;20188;-86
2022/08/25 02:50:59;;;;;;;12.30;4.17;;;;;;;24.08;85.32;98465.75;6040525;23;20150;-86
2022/08/25 02:53:26;;;;;;;9.13;3.40;;;;;;;24.13;85.00;98463.38;6040800;23;20150;-86
2022/08/25 02:55:52;;;;;;;7.40;2.90;;;;;;;24.13;84.14;98450.00;6040430;23;20153;-87
2022/08/25 02:58:17;;;;;;;16.40;3.67;;;;;;;23.98;84.87;98443.75;6039280;23;20153;-87
2022/08/25 03:00:43;;;;;;;6.70;2.80;;;;;;;24.07;83.86;98439.97;6040709;23;20571;-87
2022/08/25 03:03:08;;;;;;;11.37;3.00;;;;;;;24.09;82.85;98449.50;6039139;23;20480;-88
2022/08/25 03:05:33;;;;;;;8.40;2.90;;;;;;;24.20;82.56;98450.91;6040643;23;20157;-87
2022/08/25 03:07:59;;;;;;;13.17;3.20;;;;;;;24.10;82.33;98459.22;6039182;23;20153;-87
2022/08/25 03:10:25;;;;;;;15.23;3.47;;;;;;;24.03;82.75;98455.56;6040237;23;20221;-87
2022/08/25 03:12:50;;;;;;;15.73;4.47;;;;;;;24.00;83.25;98458.63;6040575;23;20233;-87
2022/08/25 03:15:16;;;;;;;11.87;3.20;;;;;;;23.88;83.66;98461.88;6040250;23;20272;-87
2022/08/25 03:17:44;;;;;;;9.10;2.73;;;;;;;23.84;84.26;98473.00;6040236;23;20161;-87
2022/08/25 03:20:10;;;;;;;5.67;2.97;;;;;;;24.04;82.41;98477.81;6040238;23;20146;-86
2022/08/25 03:22:35;;;;;;;12.90;3.97;;;;;;;24.04;82.63;98478.66;6040207;23;20150;-87
2022/08/25 03:27:48;;;;;;;7.73;3.23;;;;;;;24.11;82.08;98484.16;6040521;23;20173;-87
2022/08/25 03:30:14;;;;;;;9.03;3.83;;;;;;;24.00;82.58;98479.19;6040124;23;20150;-88
2022/08/25 03:32:41;;;;;;;8.67;3.10;;;;;;;23.91;83.06;98470.41;6039948;23;20172;-88
2022/08/25 03:35:08;;;;;;;10.07;2.90;;;;;;;23.71;84.38;98478.13;6040090;23;20193;-87
2022/08/25 03:37:33;;;;;;;6.40;2.60;;;;;;;23.87;84.11;98470.94;6040105;23;20149;-87
2022/08/25 03:40:01;;;;;;;8.57;3.33;;;;;;;23.93;83.21;98463.00;6040060;23;20164;-88
2022/08/25 03:42:26;;;;;;;7.97;3.00;;;;;;;23.89;83.66;98471.59;6040305;23;20150;-88
2022/08/25 03:44:52;;;;;;;13.90;3.60;;;;;;;23.90;83.56;98468.72;6039935;23;20192;-88
2022/08/25 03:47:18;;;;;;;11.87;3.57;;;;;;;23.93;83.73;98465.69;6039120;23;20515;-87
2022/08/25 03:49:43;;;;;;;8.80;3.20;;;;;;;24.01;82.69;98472.81;6039980;23;20150;-88
2022/08/25 03:52:09;;;;;;;13.07;3.23;;;;;;;23.97;82.91;98472.38;6038720;23;20154;-88
2022/08/25 03:54:34;;;;;;;18.10;4.20;;;;;;;23.92;83.03;98474.75;6040593;23;20221;-89
2022/08/25 03:57:00;;;;;;;11.17;3.07;;;;;;;23.73;84.15;98476.09;6039949;23;20154;-89
2022/08/25 03:59:26;;;;;;;10.13;3.17;;;;;;;23.79;84.53;98469.19;6037171;23;20204;-89
2022/08/25 04:01:52;;;;;;;16.67;3.03;;;;;;;23.67;84.83;98465.25;6038523;23;20549;-91
2022/08/25 04:04:17;;;;;;;8.07;3.53;;;;;;;23.66;85.76;98468.97;6038128;23;20185;-87
2022/08/25 04:06:43;;;;;;;14.00;3.33;;;;;;;23.92;83.97;98473.91;6038476;23;20220;-88
2022/08/25 04:09:11;;;;;;;6.70;2.57;;;;;;;23.93;83.61;98481.75;6039801;23;20154;-87
2022/08/25 04:11:36;;;;;;;13.83;2.80;;;;;;;24.04;82.71;98469.78;6039744;23;20189;-88
2022/08/25 04:14:04;;;;;;;10.23;3.63;;;;;;;24.01;82.93;98465.63;6039742;23;20146;-87
2022/08/25 04:16:33;;;;;;;11.00;3.33;;;;;;;23.94;82.74;98461.19;6039523;23;20188;-87
2022/08/25 04:19:01;;;;;;;10.97;2.93;;;;;;;23.81;83.50;98468.00;6038564;23;20485;-89
2022/08/25 04:21:27;;;;;;;8.80;3.53;;;;;;;23.84;83.67;98456.94;6039710;23;20154;-88
2022/08/25 04:23:54;;;;;;;9.13;3.10;;;;;;;23.84;83.63;98456.94;6039544;23;20550;-87
2022/08/25 04:26:26;;;;;;;6.37;2.77;;;;;;;23.83;82.91;98454.41;6039349;23;20540;-87
2022/08/25 04:28:53;;;;;;;9.73;3.10;;;;;;;23.69;83.96;98458.72;6039690;23;20138;-88
2022/08/25 04:31:20;;;;;;;7.50;3.33;;;;;;;23.80;83.81;98455.59;6040068;23;20533;-89
2022/08/25 04:33:47;;;;;;;10.00;2.67;;;;;;;23.64;85.14;98455.75;6039467;23;20173;-88
2022/08/25 04:36:14;;;;;;;7.50;2.40;;;;;;;23.66;84.68;98463.59;6039912;23;20582;-87
2022/08/25 04:38:40;;;;;;;13.77;3.07;;;;;;;23.48;85.89;98463.88;6038384;23;20202;-88
2022/08/25 04:41:07;;;;;;;9.37;2.93;;;;;;;23.57;85.34;98465.50;6038497;23;20165;-89
2022/08/25 04:43:35;;;;;;;6.10;2.70;;;;;;;23.81;84.24;98454.59;6039848;23;20178;-87
2022/08/25 04:46:24;;;;;;;6.57;3.13;;;;;;;23.98;83.07;98462.50;6039570;23;20286;-87
2022/08/25 04:48:51;;;;;;;6.33;2.70;;;;;;;23.90;83.19;98457.22;6038865;23;20157;-86
2022/08/25 04:51:20;;;;;;;13.13;3.03;;;;;;;23.89;83.18;98461.72;6039533;23;20165;-88
2022/08/25 04:53:45;;;;;;;9.77;2.80;;;;;;;23.80;83.54;98452.94;6040215;23;20154;-88
2022/08/25 04:56:14;;;;;;;5.53;2.53;;;;;;;23.88;82.98;98445.84;6040188;23;20225;-88
2022/08/25 04:58:40;;;;;;;7.30;2.70;;;;;;;23.98;82.48;98447.25;6038305;23;20241;-87
2022/08/25 05:01:09;;;;;;;6.10;2.70;;;;;;;24.18;81.38;98443.06;6039493;23;20161;-87
2022/08/25 05:03:35;;;;;;;8.33;2.57;;;;;;;24.25;80.31;98440.47;6039494;23;20630;-88
2022/08/25 05:06:01;;;;;;;9.67;3.03;;;;;;;23.96;82.48;98440.41;6041426;23;20153;-88
2022/08/25 05:08:27;;;;;;;4.90;2.50;;;;;;;24.16;81.40;98444.28;6041742;23;20160;-88
2022/08/25 05:10:53;;;;;;;8.07;3.40;;;;;;;24.16;80.94;98438.91;6041396;23;20150;-87
2022/08/25 05:13:27;;;;;;;9.87;2.30;;;;;;;24.07;81.14;98435.44;6041389;23;20146;-88
2022/08/25 05:15:56;;;;;;;5.70;2.23;;;;;;;24.14;78.94;98435.56;6041676;23;20252;-89
2022/08/25 05:18:23;;;;;;;8.90;1.93;;;;;;;24.24;79.28;98436.16;6040136;23;20162;-88
2022/08/25 05:20:50;;;;;;;7.17;2.37;;;;;;;24.40;79.16;98436.78;6040093;23;20154;-88
2022/08/25 05:23:16;;;;;;;6.73;2.50;;;;;;;24.50;79.21;98441.06;6040210;23;20194;-88
2022/08/25 05:25:43;;;;;;;8.23;2.50;;;;;;;24.50;79.39;98444.56;6040074;23;20232;-89
2022/08/25 05:28:08;;;;;;;10.83;2.87;;;;;;;24.47;78.96;98452.13;6040095;23;20154;-88
2022/08/25 05:30:38;;;;;;;8.73;2.30;;;;;;;24.65;78.51;98445.38;6041221;23;20164;-88
2022/08/25 05:33:03;;;;;;;4.93;2.17;;;;;;;24.87;76.56;98454.34;6039701;23;20205;-88
2022/08/25 05:35:29;;;;;;;4.50;2.60;;;;;;;25.07;75.86;98459.94;6041130;23;20452;-89
2022/08/25 05:37:56;;;;;;;5.23;2.43;;;;;;;25.01;76.15;98456.16;6041207;23;20150;-88
2022/08/25 05:40:22;;;;;;;9.97;2.90;;;;;;;25.13;75.96;98453.84;6041114;23;20189;-87
2022/08/25 05:42:47;;;;;;;7.57;2.67;;;;;;;25.39;74.64;98452.25;6041432;23;20150;-87
2022/08/25 05:45:13;;;;;;;6.47;2.70;;;;;;;25.59;73.97;98449.81;6039769;23;20192;-88
2022/08/25 05:47:39;;;;;;;7.87;2.60;;;;;;;25.74;73.15;98445.19;6041006;23;20154;-88
2022/08/25 05:50:06;;;;;;;5.30;2.17;;;;;;;25.71;71.85;98442.88;6041670;23;20150;-88
2022/08/25 05:52:31;;;;;;;10.90;2.80;;;;;;;25.80;71.90;98439.06;6039824;23;20229;-87
2022/08/25 05:54:57;;;;;;;4.33;2.10;;;;;;;25.93;70.32;98431.09;6041350;23;20150;-89
2022/08/25 05:57:23;;;;;;;4.33;1.63;;;;;;;25.86;69.71;98432.91;6039866;23;20158;-88
2022/08/25 05:59:48;;;;;;;7.93;2.37;;;;;;;25.98;68.63;98434.03;6040962;23;20161;-88
2022/08/25 06:04:58;;;;;;;5.10;1.90;;;;;;;26.36;67.65;98436.41;6040824;23;20501;-87
2022/08/25 06:07:23;;;;;;;5.40;1.63;;;;;;;26.60;67.39;98435.88;6040891;23;20150;-88
2022/08/25 06:09:49;;;;;;;6.82;2.17;;;;;;;26.70;65.71;98441.75;6041127;23;20515;-89
2022/08/25 06:12:16;;;;;;;6.45;2.03;;;;;;;26.98;64.41;98431.75;6041179;23;20232;-88
2022/08/25 06:14:41;;;;;;;10.43;2.13;;;;;;;27.18;63.79;98439.88;6040624;23;20229;-90
2022/08/25 06:17:07;;;;;;;6.28;1.58;;;;;;;27.17;63.47;98436.38;6040615;23;20196;-88
2022/08/25 06:19:33;;;;;;;4.88;1.23;;;;;;;27.44;63.57;98421.97;6040707;23;20154;-87
2022/08/25 06:21:58;;;;;;;11.07;1.63;;;;;;;27.76;61.46;98435.66;6040762;23;20154;-87
2022/08/25 06:24:25;;;;;;;6.45;1.27;;;;;;;27.94;60.50;98423.25;6040606;23;20613;-87
2022/08/25 06:26:51;;;;;;;3.40;1.40;;;;;;;28.20;61.29;98425.09;6041009;23;20154;-88
2022/08/25 06:29:18;;;;;;;3.65;1.17;;;;;;;28.26;59.26;98432.34;6041326;23;20234;-88
2022/08/25 06:31:45;;;;;;;6.07;1.83;;;;;;;28.34;59.70;98434.84;6040406;23;20216;-88
2022/08/25 06:34:11;;;;;;;6.68;1.63;;;;;;;28.60;58.58;98433.94;6041069;23;20221;-86
2022/08/25 06:36:37;;;;;;;2.83;1.50;;;;;;;28.88;57.66;98437.19;6039454;23;20180;-88
2022/08/25 06:39:03;;;;;;;5.25;1.90;;;;;;;29.02;56.40;98441.50;6040595;23;20217;-89
2022/08/25 06:41:29;;;;;;;4.90;1.85;;;;;;;29.13;56.14;98440.81;6040821;23;20213;-88
2022/08/25 06:43:54;;;;;;;5.43;1.80;;;;;;;29.52;54.48;98439.78;6040564;23;20182;-89
2022/08/25 06:46:23;;;;;;;5.28;1.42;;;;;;;29.75;53.57;98437.31;6040598;23;20645;-89
2022/08/25 06:48:51;;;;;;;3.45;1.45;;;;;;;29.92;52.77;98434.09;6040885;23;20233;-90
2022/08/25 06:51:21;;;;;;;4.32;1.92;;;;;;;29.87;53.07;98436.66;6040912;23;20233;-88
2022/08/25 06:53:48;;;;;;;4.70;2.13;;;;;;;29.71;53.15;98432.59;6041238;23;20224;-88
2022/08/25 06:56:18;;;;;;;6.35;2.78;;;;;;;30.06;52.80;98424.84;6040473;23;20229;-89
2022/08/25 06:58:43;;;;;;;5.63;2.40;;;;;;;30.36;52.90;98425.81;6039608;23;20172;-89
2022/08/25 07:01:10;;;;;;;3.97;1.70;;;;;;;30.31;51.05;98433.75;6040560;23;20178;-90
2022/08/25 07:03:36;;;;;;;3.58;1.77;;;;;;;30.00;52.19;98428.44;6039135;23;20185;-88
2022/08/25 07:06:01;;;;;;;4.95;1.75;;;;;;;29.96;52.72;98430.75;6040742;23;20224;-89
2022/08/25 07:08:27;;;;;;;4.80;2.25;;;;;;;29.91;54.49;98438.69;6040439;23;20149;-88
2022/08/25 07:10:53;;;;;;;9.85;2.03;;;;;;;30.11;52.91;98433.13;6040128;23;20162;-89
2022/08/25 07:13:18;;;;;;;8.80;1.98;;;;;;;30.33;53.10;98437.03;6039143;23;20164;-89
2022/08/25 07:15:44;;;;;;;3.83;2.25;;;;;;;30.42;52.13;98441.97;6040550;23;20153;-89
2022/08/25 07:18:10;;;;;;;4.03;1.70;;;;;;;30.51;51.54;98445.22;6040544;23;20150;-89
2022/08/25 07:20:37;;;;;;;7.03;2.67;;;;;;;30.50;51.77;98446.28;6040229;23;20218;-88
2022/08/25 07:23:03;;;;;;;8.95;3.25;;;;;;;30.54;51.64;98452.88;6040106;23;20161;-88
2022/08/25 07:25:29;;;;;;;4.45;2.20;;;;;;;30.73;51.16;98448.31;6038999;23;20158;-89
2022/08/25 07:27:57;;;;;;;5.60;2.15;;;;;;;30.66;51.94;98461.91;6038741;23;20233;-89
2022/08/25 07:30:23;;;;;;;3.50;1.98;;;;;;;30.36;51.12;98458.28;6040087;23;20154;-89
2022/08/25 07:32:49;;;;;;;9.43;2.55;;;;;;;30.43;51.60;98464.44;6040343;23;20197;-91
2022/08/25 07:35:14;;;;;;;7.85;2.42;;;;;;;30.57;52.33;98455.13;6040595;23;20146;-89
2022/08/25 07:37:58;;;;;;;10.20;3.47;;;;;;;30.73;51.09;98464.53;6039253;23;20567;-88
2022/08/25 07:40:30;;;;;;;5.30;2.70;;;;;;;31.01;50.93;98468.41;6040437;23;20133;-88
2022/08/25 07:42:59;;;;;;;7.68;2.65;;;;;;;31.14;49.47;98466.56;6040016;23;20201;-89
2022/08/25 07:45:36;;;;;;;10.52;2.47;;;;;;;30.97;50.19;98472.63;6038719;23;20641;-90
2022/08/25 07:48:08;;;;;;;7.88;2.20;;;;;;;31.21;48.83;98470.84;6039570;23;20229;-91
2022/08/25 07:50:34;;;;;;;7.68;2.38;;;;;;;31.23;48.23;98465.22;6040358;23;20157;-90
2022/08/25 07:53:03;;;;;;;6.97;2.08;;;;;;;31.18;47.50;98474.03;6039997;23;20150;-90
2022/08/25 07:55:38;;;;;;;8.30;2.92;;;;;;;31.18;47.85;98470.47;6039980;23;20150;-89
2022/08/25 07:58:09;;;;;;;7.13;3.13;;;;;;;31.37;48.14;98466.66;6040294;23;20173;-91
2022/08/25 08:00:48;;;;;;;7.13;2.65;;;;;;;31.60;47.33;98473.03;6040280;23;20154;-89
2022/08/25 08:03:13;;;;;;;5.07;2.28;;;;;;;31.81;45.92;98462.72;6040177;23;20161;-89
2022/08/25 08:05:42;;;;;;;10.52;2.90;;;;;;;31.86;45.63;98463.69;6039878;23;20150;-89
2022/08/25 08:08:11;;;;;;;9.90;2.92;;;;;;;32.07;45.88;98463.16;6040180;23;20241;-90
2022/08/25 08:13:41;;;;;;;7.65;2.42;;;;;;;32.16;43.87;98460.91;6029492;23;20156;-89
2022/08/25 08:16:12;;;;;;;5.15;2.40;;;;;;;32.42;44.12;98454.19;6063596;23;20530;-90
2022/08/25 08:19:02;;;;;;;9.18;3.47;;;;;;;32.58;43.06;98453.50;6040169;23;20562;-90
2022/08/25 08:21:36;;;;;;;13.50;2.97;;;;;;;32.44;44.18;98457.50;6038049;23;20201;-89
2022/08/25 08:27:01;;;;;;;6.00;2.85;;;;;;;32.90;43.01;98462.91;6020511;23;20583;-90
2022/08/25 08:29:49;;;;;;;12.13;2.97;;;;;;;33.21;42.69;98462.47;6038578;23;20154;-89
2022/08/25 08:32:16;;;;;;;6.65;2.55;;;;;;;33.23;39.81;98463.06;6039140;23;20206;-88
2022/08/25 08:34:42;;;;;;;11.48;3.63;;;;;;;33.33;42.31;98457.00;6038188;23;20202;-90
2022/08/25 08:37:17;;;;;;;7.25;3.38;;;;;;;33.47;41.56;98460.22;6040078;23;20229;-90
2022/08/25 08:39:45;;;;;;;13.55;2.70;;;;;;;33.60;40.19;98457.25;6038780;23;20485;-88
2022/08/25 08:42:58;;;;;;;;;;;;;;;;;;;;;
2022/08/25 08:45:27;;;;;;;9.13;2.80;;;;;;;34.12;38.78;98447.84;6039440;23;20288;-89
2022/08/25 08:48:27;;;;;;;8.13;2.70;;;;;;;34.00;39.11;98447.06;6039636;23;20182;-89
2022/08/25 08:51:05;;;;;;;5.97;2.88;;;;;;;33.64;40.71;98442.13;6038438;23;20476;-88
2022/08/25 08:54:01;;;;;;;7.10;2.25;;;;;;;33.72;40.26;98447.16;6038756;23;20154;-90
2022/08/25 08:57:05;;;;;;;13.98;3.08;;;;;;;34.21;38.98;98426.47;6038411;23;20150;-90
2022/08/25 09:00:19;;;;;;;15.52;3.92;;;;;;;34.21;39.84;98405.53;6039987;23;20232;-90
2022/08/25 09:03:13;;;;;;;12.40;3.60;;;;;;;33.91;37.82;98410.50;5953545;24;20234;-89
2022/08/25 09:05:57;;;;;;;7.22;2.15;;;;;;;33.94;36.73;98412.69;5930354;24;20160;-89
2022/08/25 09:09:18;;;;;;;;;;;;;;;;;;;;;
2022/08/25 09:12:03;;;;;;;7.20;2.22;;;;;;;34.51;37.39;98402.44;6028997;23;20244;-90
2022/08/25 09:18:04;;;;;;;7.85;2.65;;;;;;;34.41;36.60;98391.38;6036917;23;20160;-90
2022/08/25 09:20:46;;;;;;;5.43;2.25;;;;;;;34.88;35.19;98383.59;6039833;23;20153;-88
2022/08/25 09:23:35;;;;;;;13.52;3.13;;;;;;;34.81;35.63;98382.97;6038341;23;20570;-90
2022/08/25 09:26:53;;;;;;;5.00;1.77;;;;;;;34.52;35.79;98383.13;5985836;23;20162;-89
2022/08/25 09:29:41;;;;;;;8.98;2.45;;;;;;;34.67;36.92;98389.88;6039333;23;20154;-90
2022/08/25 09:32:07;;;;;;;8.52;2.60;;;;;;;34.88;36.04;98378.97;6038249;23;20210;-88
2022/08/25 09:34:33;;;;;;;7.05;2.10;;;;;;;35.12;34.76;98374.09;6061962;23;20301;-89
2022/08/25 09:37:08;;;;;;;11.88;3.33;;;;;;;34.81;36.05;98382.97;6039374;23;20150;-90
2022/08/25 09:39:35;;;;;;;12.70;2.90;;;;;;;34.36;36.08;98375.00;6038316;23;20173;-88
2022/08/25 09:42:05;;;;;;;6.40;2.17;;;;;;;33.99;37.18;98377.41;6038601;23;20197;-89
2022/08/25 09:44:37;;;;;;;9.20;2.28;;;;;;;33.87;38.21;98374.81;6039948;23;20170;-89
2022/08/25 09:47:22;;;;;;;11.15;3.67;;;;;;;33.97;37.86;98360.53;6039469;23;20142;-88
2022/08/25 09:50:00;;;;;;;9.23;2.92;;;;;;;33.73;36.93;98369.94;6038559;23;20150;-89
2022/08/25 09:52:43;;;;;;;4.40;2.10;;;;;;;33.69;37.30;98364.19;6039873;23;20348;-89
2022/08/25 09:55:44;;;;;;;14.57;2.20;;;;;;;33.67;35.81;98363.63;6038959;23;20157;-90
2022/08/25 09:58:43;;;;;;;7.55;2.40;;;;;;;33.76;37.43;98359.41;6039567;23;20217;-89
2022/08/25 10:08:54;;;;;;;8.70;1.75;;;;;;;34.34;33.98;98349.94;5986480;23;20158;-90
2022/08/25 10:12:00;;;;;;;6.55;1.77;;;;;;;34.64;34.49;98344.09;5986084;23;20155;-90
2022/08/25 10:14:39;;;;;;;3.75;1.65;;;;;;;34.84;33.80;98344.31;6005800;23;20582;-89
2022/08/25 10:17:28;;;;;;;7.55;2.17;;;;;;;34.81;33.96;98350.28;6040168;23;20178;-89
2022/08/25 10:23:56;;;;;;;;;;;;;;;;;;;;;
2022/08/25 10:27:09;;;;;;;;;;;;;;;;;;;;;
2022/08/25 10:48:13;;;;;;;;;;;;;;;;;;;;;
2022/08/25 10:55:00;;;;;;;;;;;;;;;;;;;;;
2022/08/25 11:01:38;;;;;;;10.50;2.55;;;;;;;35.42;33.31;98313.59;5739779;24;20656;-89
2022/08/25 11:08:18;;;;;;;10.75;2.55;;;;;;;35.50;33.96;98311.22;5766357;24;20163;-89
2022/08/25 11:25:28;;;;;;;7.90;1.50;;;;;;;36.33;32.05;98301.44;5728211;24;20282;-89
2022/08/25 11:31:50;;;;;;;;;;;;;;;;;;;;;
2022/08/25 11:37:58;;;;;;;17.80;2.83;;;;;;;36.61;32.20;98292.81;6011298;23;20178;-89
2022/08/25 11:41:01;;;;;;;10.77;2.33;;;;;;;37.09;30.72;98291.59;5985297;23;20159;-90
2022/08/25 11:43:57;;;;;;;6.22;2.42;;;;;;;36.79;31.16;98291.53;6009113;23;20135;-89
2022/08/25 11:46:50;;;;;;;11.63;2.03;;;;;;;36.20;31.89;98288.25;6009158;23;20143;-89
2022/08/25 11:50:03;;;;;;;4.55;1.13;;;;;;;36.43;31.87;98281.56;5985532;23;20155;-90
2022/08/25 11:59:50;;;;;;;12.20;2.60;;;;;;;36.29;32.56;98276.59;5850576;24;20169;-89
2022/08/25 12:02:40;;;;;;;8.63;1.98;;;;;;;36.42;32.50;98268.97;5871851;24;20476;-89
2022/08/25 12:06:09;;;;;;;4.15;1.63;;;;;;;36.47;31.95;98264.38;5871927;24;20194;-88
2022/08/25 12:09:13;;;;;;;6.68;1.85;;;;;;;36.66;31.42;98257.31;5787673;24;20168;-90
2022/08/25 12:12:22;;;;;;;6.18;1.77;;;;;;;36.74;30.74;98259.53;5782802;24;20213;-89
2022/08/25 12:15:19;;;;;;;6.15;2.13;;;;;;;36.97;30.11;98254.69;6010548;23;20215;-89
2022/08/25 12:18:07;;;;;;;6.93;1.60;;;;;;;37.25;31.25;98251.44;5976973;23;20189;-88
2022/08/25 12:21:01;;;;;;;4.30;1.90;;;;;;;37.44;30.39;98247.09;6011655;23;20233;-90
2022/08/25 12:27:50;;;;;;;4.63;1.35;;;;;;;37.46;31.09;98223.84;5998405;23;20168;-87
2022/08/25 12:34:13;;;;;;;7.88;1.60;;;;;;;37.35;30.69;98229.53;5871001;24;20241;-89
2022/08/25 12:37:04;;;;;;;5.55;1.67;;;;;;;37.19;30.49;98231.47;5950496;23;20209;-90
2022/08/25 12:39:55;;;;;;;;;;;;;;;;;;;;;
2022/08/25 12:43:41;;;;;;;;;;;;;;;;;;;;;
2022/08/25 12:46:34;;;;;;;5.95;2.15;;;;;;;36.81;31.39;98230.06;5898439;24;20256;-90
2022/08/25 12:49:36;;;;;;;8.25;2.00;;;;;;;36.74;31.45;98218.56;5898875;24;20245;-89
2022/08/25 12:52:19;;;;;;;5.97;1.70;;;;;;;36.93;30.08;98225.16;5898844;24;20145;-90
2022/08/25 12:55:02;;;;;;;7.38;2.25;;;;;;;36.59;31.55;98225.91;5906867;23;20604;-88
2022/08/25 12:57:56;;;;;;;5.70;1.40;;;;;;;36.88;30.39;98218.84;5987555;23;20147;-89
2022/08/25 13:00:54;;;;;;;4.45;0.93;;;;;;;36.80;30.30;98227.59;6011526;23;20139;-90
2022/08/25 13:03:49;;;;;;;;;;;;;;;;;;;;;
2022/08/25 13:07:01;;;;;;;12.98;1.77;;;;;;;37.16;30.88;98217.56;6011448;23;20514;-90
2022/08/25 13:10:02;;;;;;;8.52;1.55;;;;;;;37.40;30.34;98218.59;5987791;23;20479;-90
2022/08/25 13:12:54;;;;;;;11.85;1.95;;;;;;;37.22;30.14;98208.22;6011433;23;20252;-89
2022/08/25 13:16:08;;;;;;;8.70;2.50;;;;;;;36.70;31.47;98206.56;5986885;23;20147;-89
2022/08/25 13:19:05;;;;;;;4.28;2.22;;;;;;;37.08;30.77;98207.16;5955031;23;20158;-90
2022/08/25 13:21:42;;;;;;;10.20;2.45;;;;;;;37.03;30.06;98204.44;5898791;24;20165;-88
2022/08/25 13:24:41;;;;;;;9.70;2.38;;;;;;;36.91;30.72;98202.75;6011587;23;20181;-89
2022/08/25 13:27:25;;;;;;;6.35;1.75;;;;;;;36.73;30.68;98208.75;5988201;23;20158;-88
2022/08/25 13:33:50;;;;;;;2.83;1.17;;;;;;;36.85;30.44;98205.75;5872673;24;20158;-88
2022/08/25 13:39:22;;;;;;;7.90;1.55;;;;;;;36.52;31.04;98193.41;6041533;23;20149;-88
2022/08/25 13:41:55;;;;;;;2.65;1.33;;;;;;;36.58;30.39;98195.06;6041479;23;20144;-88
2022/08/25 13:44:24;;;;;;;7.18;1.63;;;;;;;36.52;31.12;98181.66;6016149;23;20231;-87
2022/08/25 13:47:12;;;;;;;4.90;1.35;;;;;;;36.43;30.53;98186.81;6041070;23;20158;-89
2022/08/25 13:52:28;;;;;;;9.00;2.35;;;;;;;36.37;31.39;98185.16;6016511;23;20153;-89
2022/08/25 13:55:05;;;;;;;4.85;1.42;;;;;;;36.38;31.00;98173.13;6041028;23;20497;-88
2022/08/25 13:57:33;;;;;;;12.88;1.98;;;;;;;36.41;31.85;98171.78;6041699;23;20158;-89